createdAt,value
2023-04-18T00:00:39.811Z,86.36
2023-04-18T00:01:39.791Z,86.88
2023-04-18T00:02:39.870Z,86.26
2023-04-18T00:03:40.035Z,86.68
2023-04-18T00:04:39.782Z,86.68
2023-04-18T00:05:39.765Z,87.13
2023-04-18T00:06:39.719Z,87.08
2023-04-18T00:07:39.722Z,87.40
2023-04-18T00:08:39.704Z,86.98
2023-04-18T00:09:39.738Z,86.88
2023-04-18T00:10:39.723Z,87.23
2023-04-18T00:11:39.679Z,87.23
2023-04-18T00:12:39.656Z,86.68
2023-04-18T00:13:39.662Z,87.60
2023-04-18T00:14:39.643Z,87.02
2023-04-18T00:15:39.627Z,87.29
2023-04-18T00:16:39.644Z,87.65
2023-04-18T00:17:39.710Z,87.65
2023-04-18T00:18:39.590Z,87.65
2023-04-18T00:19:39.592Z,88.06
2023-04-18T00:20:39.635Z,87.40
2023-04-18T00:21:39.587Z,87.85
2023-04-18T00:22:39.545Z,87.74
2023-04-18T00:23:39.529Z,87.65
2023-04-18T00:24:39.560Z,88.43
2023-04-18T00:25:39.507Z,88.06
2023-04-18T00:26:39.499Z,88.26
2023-04-18T00:27:39.490Z,88.47
2023-04-18T00:28:39.488Z,88.16
2023-04-18T00:29:39.534Z,88.16
2023-04-18T00:30:39.503Z,88.26
2023-04-18T00:31:39.497Z,88.51
2023-04-18T00:32:39.480Z,88.51
2023-04-18T00:33:39.424Z,88.06
2023-04-18T00:34:39.432Z,88.16
2023-04-18T00:35:39.406Z,88.51
2023-04-18T00:36:39.438Z,88.51
2023-04-18T00:37:39.385Z,88.51
2023-04-18T00:38:39.369Z,88.41
2023-04-18T00:39:39.361Z,88.31
2023-04-18T00:40:39.402Z,88.51
2023-04-18T00:41:39.349Z,88.61
2023-04-18T00:42:39.335Z,88.82
2023-04-18T00:43:39.351Z,88.51
2023-04-18T00:44:39.336Z,88.82
2023-04-18T00:45:39.293Z,88.31
2023-04-18T00:46:39.350Z,88.82
2023-04-18T00:47:39.357Z,88.82
2023-04-18T00:48:39.274Z,88.71
2023-04-18T00:49:39.249Z,88.71
2023-04-18T00:50:39.283Z,88.71
2023-04-18T00:51:39.225Z,88.41
2023-04-18T00:52:39.231Z,88.71
2023-04-18T00:53:39.207Z,89.13
2023-04-18T00:54:39.197Z,88.96
2023-04-18T00:55:39.205Z,89.03
2023-04-18T00:56:39.185Z,89.07
2023-04-18T00:57:39.156Z,89.03
2023-04-18T00:58:39.141Z,89.38
2023-04-18T00:59:39.146Z,89.38
2023-04-18T01:00:39.163Z,89.48
2023-04-18T01:01:39.249Z,88.86
2023-04-18T01:02:39.188Z,89.07
2023-04-18T01:03:39.317Z,89.28
2023-04-18T01:04:39.151Z,89.48
2023-04-18T01:05:39.097Z,89.38
2023-04-18T01:06:39.076Z,89.38
2023-04-18T01:07:39.060Z,89.38
2023-04-18T01:08:39.047Z,89.48
2023-04-18T01:09:39.021Z,89.89
2023-04-18T01:10:39.051Z,89.59
2023-04-18T01:11:38.999Z,89.69
2023-04-18T01:12:38.995Z,89.94
2023-04-18T01:13:38.987Z,90.14
2023-04-18T01:14:38.967Z,90.04
2023-04-18T01:15:39.063Z,90.20
2023-04-18T01:16:38.953Z,90.35
2023-04-18T01:17:38.962Z,90.25
2023-04-18T01:18:38.926Z,90.14
2023-04-18T01:19:38.919Z,90.14
2023-04-18T01:20:38.924Z,90.25
2023-04-18T01:21:38.881Z,90.20
2023-04-18T01:22:38.873Z,90.66
2023-04-18T01:23:38.858Z,90.35
2023-04-18T01:24:38.854Z,90.04
2023-04-18T01:25:38.889Z,90.77
2023-04-18T01:26:38.835Z,90.14
2023-04-18T01:27:38.814Z,90.66
2023-04-18T01:28:38.836Z,90.14
2023-04-18T01:29:39.068Z,90.25
2023-04-18T01:30:39.799Z,90.66
2023-04-18T01:31:38.893Z,90.66
2023-04-18T01:32:38.771Z,90.14
2023-04-18T01:33:38.754Z,90.97
2023-04-18T01:34:38.752Z,90.56
2023-04-18T01:35:38.744Z,90.29
2023-04-18T01:36:38.722Z,90.35
2023-04-18T01:37:38.700Z,90.35
2023-04-18T01:38:38.698Z,90.35
2023-04-18T01:39:38.688Z,90.56
2023-04-18T01:40:38.755Z,90.50
2023-04-18T01:41:38.660Z,90.60
2023-04-18T01:42:38.647Z,90.50
2023-04-18T01:43:38.634Z,90.77
2023-04-18T01:44:38.622Z,90.70
2023-04-18T01:45:38.692Z,90.70
2023-04-18T01:46:38.643Z,90.60
2023-04-18T01:47:38.635Z,90.66
2023-04-18T01:48:38.578Z,90.87
2023-04-18T01:49:38.608Z,90.91
2023-04-18T01:50:38.574Z,90.80
2023-04-18T01:51:38.744Z,90.80
2023-04-18T01:52:38.567Z,90.91
2023-04-18T01:53:38.519Z,90.50
2023-04-18T01:54:38.533Z,90.70
2023-04-18T01:55:38.540Z,90.80
2023-04-18T01:56:38.489Z,90.80
2023-04-18T01:57:38.495Z,90.91
2023-04-18T01:58:38.468Z,90.70
2023-04-18T01:59:38.461Z,90.66
2023-04-18T02:00:38.513Z,90.80
2023-04-18T02:01:38.432Z,90.70
2023-04-18T02:02:38.501Z,90.70
2023-04-18T02:03:38.564Z,90.77
2023-04-18T02:04:38.397Z,90.50
2023-04-18T02:05:38.400Z,90.70
2023-04-18T02:06:38.372Z,90.66
2023-04-18T02:07:38.403Z,90.60
2023-04-18T02:08:38.357Z,90.60
2023-04-18T02:09:38.351Z,90.66
2023-04-18T02:10:38.372Z,90.45
2023-04-18T02:11:38.317Z,90.77
2023-04-18T02:12:38.301Z,90.66
2023-04-18T02:13:38.340Z,90.77
2023-04-18T02:14:38.312Z,90.77
2023-04-18T02:15:38.310Z,90.77
2023-04-18T02:16:38.288Z,90.77
2023-04-18T02:17:38.285Z,90.62
2023-04-18T02:18:38.251Z,90.56
2023-04-18T02:19:38.231Z,90.25
2023-04-18T02:20:38.241Z,90.87
2023-04-18T02:21:38.210Z,90.45
2023-04-18T02:22:38.220Z,90.35
2023-04-18T02:23:38.174Z,90.52
2023-04-18T02:24:38.164Z,90.83
2023-04-18T02:25:38.181Z,90.62
2023-04-18T02:26:38.136Z,90.10
2023-04-18T02:27:38.123Z,89.69
2023-04-18T02:28:38.120Z,89.95
2023-04-18T02:29:38.188Z,90.16
2023-04-18T02:30:38.139Z,90.10
2023-04-18T02:31:38.142Z,89.86
2023-04-18T02:32:38.168Z,89.54
2023-04-18T02:33:38.066Z,89.44
2023-04-18T02:34:38.075Z,89.54
2023-04-18T02:35:38.072Z,89.75
2023-04-18T02:36:38.025Z,89.65
2023-04-18T02:37:38.010Z,89.44
2023-04-18T02:38:38.002Z,89.03
2023-04-18T02:39:37.999Z,89.23
2023-04-18T02:40:38.024Z,88.71
2023-04-18T02:41:37.983Z,89.50
2023-04-18T02:42:37.966Z,88.89
2023-04-18T02:43:37.975Z,89.29
2023-04-18T02:44:37.955Z,89.23
2023-04-18T02:45:38.004Z,89.03
2023-04-18T02:46:37.910Z,88.89
2023-04-18T02:47:51.254Z,89.13
2023-04-18T02:48:39.904Z,88.98
2023-04-18T02:49:37.871Z,88.89
2023-04-18T02:50:37.956Z,89.13
2023-04-18T02:51:37.855Z,88.89
2023-04-18T02:52:37.843Z,88.89
2023-04-18T02:53:37.827Z,88.78
2023-04-18T02:54:37.822Z,88.20
2023-04-18T02:55:37.833Z,88.68
2023-04-18T02:56:37.795Z,88.37
2023-04-18T02:57:37.775Z,88.37
2023-04-18T02:58:38.776Z,88.26
2023-04-18T02:59:37.766Z,88.47
2023-04-18T03:00:37.819Z,88.47
2023-04-18T03:01:37.802Z,88.78
2023-04-18T03:02:37.813Z,88.57
2023-04-18T03:03:37.712Z,88.68
2023-04-18T03:04:37.736Z,88.78
2023-04-18T03:05:37.726Z,88.47
2023-04-18T03:06:37.681Z,88.53
2023-04-18T03:07:37.672Z,88.47
2023-04-18T03:08:37.656Z,88.43
2023-04-18T03:09:37.664Z,88.47
2023-04-18T03:10:37.703Z,88.43
2023-04-18T03:11:37.635Z,88.47
2023-04-18T03:12:37.634Z,88.53
2023-04-18T03:13:37.610Z,88.95
2023-04-18T03:14:37.612Z,88.47
2023-04-18T03:15:37.624Z,88.22
2023-04-18T03:16:37.567Z,88.57
2023-04-18T03:17:37.572Z,88.64
2023-04-18T03:18:37.562Z,88.43
2023-04-18T03:19:37.532Z,88.32
2023-04-18T03:20:37.587Z,88.74
2023-04-18T03:21:37.525Z,88.22
2023-04-18T03:22:37.503Z,88.53
2023-04-18T03:23:37.493Z,88.22
2023-04-18T03:24:37.522Z,88.22
2023-04-18T03:25:37.495Z,88.43
2023-04-18T03:26:37.462Z,88.53
2023-04-18T03:27:37.455Z,88.53
2023-04-18T03:28:37.442Z,88.64
2023-04-18T03:29:37.429Z,88.43
2023-04-18T03:30:37.475Z,87.71
2023-04-18T03:31:37.508Z,88.74
2023-04-18T03:32:37.415Z,88.43
2023-04-18T03:33:37.391Z,88.12
2023-04-18T03:34:37.376Z,88.53
2023-04-18T03:35:37.389Z,88.74
2023-04-18T03:36:37.352Z,88.84
2023-04-18T03:37:37.341Z,88.22
2023-04-18T03:38:37.326Z,88.22
2023-04-18T03:39:37.325Z,88.22
2023-04-18T03:40:37.331Z,88.22
2023-04-18T03:41:37.301Z,88.12
2023-04-18T03:42:37.298Z,88.64
2023-04-18T03:43:37.287Z,88.74
2023-04-18T03:44:37.291Z,88.59
2023-04-18T03:45:37.279Z,88.74
2023-04-18T03:46:37.371Z,88.64
2023-04-18T03:47:37.254Z,88.74
2023-04-18T03:48:37.364Z,88.18
2023-04-18T03:49:37.216Z,88.53
2023-04-18T03:50:37.226Z,88.22
2023-04-18T03:51:37.191Z,88.53
2023-04-18T03:52:37.184Z,88.43
2023-04-18T03:53:37.169Z,88.32
2023-04-18T03:54:37.169Z,88.32
2023-04-18T03:55:37.168Z,88.32
2023-04-18T03:56:37.137Z,88.43
2023-04-18T03:57:37.142Z,88.53
2023-04-18T03:58:37.117Z,88.39
2023-04-18T03:59:37.115Z,88.53
2023-04-18T04:00:37.125Z,88.49
2023-04-18T04:02:09.562Z,88.53
2023-04-18T04:02:37.206Z,88.29
2023-04-18T04:03:37.279Z,88.49
2023-04-18T04:04:37.075Z,88.74
2023-04-18T04:05:37.058Z,88.22
2023-04-18T04:06:37.050Z,88.32
2023-04-18T04:07:37.021Z,88.43
2023-04-18T04:08:37.001Z,88.39
2023-04-18T04:09:37.007Z,88.29
2023-04-18T04:10:37.025Z,88.18
2023-04-18T04:11:36.976Z,88.22
2023-04-18T04:12:36.959Z,88.53
2023-04-18T04:13:37.016Z,88.49
2023-04-18T04:14:36.938Z,88.18
2023-04-18T04:15:36.960Z,88.22
2023-04-18T04:16:37.034Z,88.29
2023-04-18T04:17:36.939Z,88.12
2023-04-18T04:18:36.907Z,88.12
2023-04-18T04:19:36.892Z,88.18
2023-04-18T04:20:36.899Z,88.29
2023-04-18T04:21:36.875Z,88.18
2023-04-18T04:22:36.865Z,88.39
2023-04-18T04:23:36.852Z,88.08
2023-04-18T04:24:36.853Z,88.18
2023-04-18T04:25:36.862Z,88.18
2023-04-18T04:26:36.822Z,88.18
2023-04-18T04:27:36.860Z,88.39
2023-04-18T04:28:36.825Z,87.50
2023-04-18T04:29:36.789Z,88.08
2023-04-18T04:30:36.817Z,87.87
2023-04-18T04:31:36.820Z,87.46
2023-04-18T04:32:36.798Z,87.66
2023-04-18T04:33:36.740Z,87.87
2023-04-18T04:34:36.764Z,88.08
2023-04-18T04:35:36.749Z,88.39
2023-04-18T04:36:36.721Z,88.29
2023-04-18T04:37:36.718Z,88.08
2023-04-18T04:38:36.685Z,88.08
2023-04-18T04:39:36.686Z,88.18
2023-04-18T04:40:36.676Z,87.87
2023-04-18T04:41:36.694Z,88.08
2023-04-18T04:42:36.652Z,88.18
2023-04-18T04:43:36.656Z,87.87
2023-04-18T04:44:36.651Z,88.18
2023-04-18T04:45:36.669Z,87.87
2023-04-18T04:46:36.603Z,87.77
2023-04-18T04:47:36.670Z,87.87
2023-04-18T04:48:36.585Z,87.98
2023-04-18T04:49:36.570Z,87.66
2023-04-18T04:50:36.560Z,87.56
2023-04-18T04:51:36.594Z,87.83
2023-04-18T04:52:36.546Z,87.42
2023-04-18T04:53:36.536Z,87.98
2023-04-18T04:54:36.541Z,87.77
2023-04-18T04:55:36.545Z,87.66
2023-04-18T04:56:36.496Z,87.83
2023-04-18T04:57:36.486Z,87.46
2023-04-18T04:58:36.478Z,87.56
2023-04-18T04:59:36.465Z,87.83
2023-04-18T05:00:36.462Z,87.66
2023-04-18T05:01:36.594Z,87.26
2023-04-18T05:02:36.588Z,87.66
2023-04-18T05:03:36.686Z,87.35
2023-04-18T05:04:36.493Z,87.26
2023-04-18T05:05:36.429Z,87.35
2023-04-18T05:06:37.431Z,87.46
2023-04-18T05:07:36.388Z,87.46
2023-04-18T05:08:36.386Z,87.87
2023-04-18T05:09:36.369Z,87.66
2023-04-18T05:10:36.362Z,87.66
2023-04-18T05:11:36.435Z,87.56
2023-04-18T05:12:36.388Z,87.63
2023-04-18T05:13:36.335Z,87.56
2023-04-18T05:14:36.319Z,87.56
2023-04-18T05:15:36.310Z,87.73
2023-04-18T05:16:36.373Z,87.56
2023-04-18T05:17:36.352Z,87.87
2023-04-18T05:18:36.274Z,87.87
2023-04-18T05:19:36.258Z,88.14
2023-04-18T05:20:36.304Z,88.29
2023-04-18T05:21:36.244Z,88.24
2023-04-18T05:22:36.230Z,88.35
2023-04-18T05:23:36.212Z,88.24
2023-04-18T05:24:36.214Z,88.45
2023-04-18T05:25:36.227Z,88.35
2023-04-18T05:26:36.184Z,87.73
2023-04-18T05:27:36.202Z,88.29
2023-04-18T05:28:36.170Z,88.04
2023-04-18T05:29:36.149Z,88.76
2023-04-18T05:30:36.209Z,88.56
2023-04-18T05:31:36.292Z,88.96
2023-04-18T05:32:36.199Z,88.80
2023-04-18T05:33:36.115Z,89.28
2023-04-18T05:34:38.033Z,89.07
2023-04-18T05:35:37.119Z,89.28
2023-04-18T05:36:36.097Z,88.80
2023-04-18T05:37:36.100Z,89.48
2023-04-18T05:38:36.091Z,89.42
2023-04-18T05:39:36.051Z,88.96
2023-04-18T05:40:36.086Z,89.28
2023-04-18T05:41:36.042Z,89.38
2023-04-18T05:42:36.024Z,89.17
2023-04-18T05:43:36.026Z,88.86
2023-04-18T05:44:36.022Z,88.56
2023-04-18T05:45:36.031Z,89.17
2023-04-18T05:46:36.039Z,88.65
2023-04-18T05:47:36.027Z,88.86
2023-04-18T05:48:35.989Z,88.65
2023-04-18T05:49:35.957Z,88.65
2023-04-18T05:50:35.981Z,89.07
2023-04-18T05:51:35.946Z,88.76
2023-04-18T05:52:35.924Z,89.28
2023-04-18T05:53:35.926Z,89.17
2023-04-18T05:54:35.910Z,89.32
2023-04-18T05:55:35.918Z,89.28
2023-04-18T05:56:35.906Z,88.90
2023-04-18T05:57:35.874Z,89.17
2023-04-18T05:58:35.863Z,88.96
2023-04-18T05:59:35.871Z,89.28
2023-04-18T06:00:35.926Z,89.32
2023-04-18T06:01:35.840Z,89.28
2023-04-18T06:02:35.961Z,89.38
2023-04-18T06:03:36.046Z,89.58
2023-04-18T06:04:35.960Z,89.38
2023-04-18T06:05:35.946Z,89.28
2023-04-18T06:06:35.778Z,89.48
2023-04-18T06:07:35.777Z,89.48
2023-04-18T06:08:35.755Z,89.79
2023-04-18T06:09:35.757Z,89.58
2023-04-18T06:10:37.735Z,89.48
2023-04-18T06:11:35.763Z,89.79
2023-04-18T06:12:35.742Z,89.54
2023-04-18T06:13:35.723Z,89.79
2023-04-18T06:14:35.701Z,89.79
2023-04-18T06:15:35.717Z,89.85
2023-04-18T06:16:35.746Z,89.58
2023-04-18T06:17:35.699Z,90.00
2023-04-18T06:18:35.785Z,89.89
2023-04-18T06:19:35.660Z,89.69
2023-04-18T06:20:35.669Z,89.75
2023-04-18T06:21:35.625Z,89.58
2023-04-18T06:22:35.627Z,89.89
2023-04-18T06:23:35.630Z,89.79
2023-04-18T06:24:35.613Z,89.95
2023-04-18T06:25:35.620Z,90.06
2023-04-18T06:26:35.572Z,89.79
2023-04-18T06:27:35.564Z,89.85
2023-04-18T06:28:35.586Z,90.06
2023-04-18T06:29:36.230Z,89.75
2023-04-18T06:30:36.559Z,89.89
2023-04-18T06:31:35.596Z,89.79
2023-04-18T06:32:35.640Z,89.85
2023-04-18T06:33:35.500Z,90.00
2023-04-18T06:34:35.490Z,89.95
2023-04-18T06:35:35.520Z,89.85
2023-04-18T06:36:35.472Z,89.75
2023-04-18T06:37:35.471Z,89.95
2023-04-18T06:38:35.457Z,89.85
2023-04-18T06:39:35.443Z,89.95
2023-04-18T06:40:35.470Z,89.85
2023-04-18T06:41:35.432Z,89.95
2023-04-18T06:42:35.406Z,89.61
2023-04-18T06:43:35.397Z,89.85
2023-04-18T06:44:35.395Z,89.75
2023-04-18T06:45:35.407Z,89.85
2023-04-18T06:46:35.374Z,89.85
2023-04-18T06:47:35.384Z,89.54
2023-04-18T06:48:35.355Z,89.54
2023-04-18T06:49:35.346Z,89.65
2023-04-18T06:50:35.361Z,89.75
2023-04-18T06:51:35.319Z,89.95
2023-04-18T06:52:35.310Z,89.85
2023-04-18T06:53:35.302Z,89.50
2023-04-18T06:54:35.295Z,89.91
2023-04-18T06:55:35.407Z,89.95
2023-04-18T06:56:36.583Z,90.06
2023-04-18T06:57:36.263Z,89.95
2023-04-18T06:58:35.245Z,90.26
2023-04-18T06:59:35.236Z,90.37
2023-04-18T07:00:35.323Z,90.26
2023-04-18T07:01:35.327Z,90.37
2023-04-18T07:02:35.334Z,90.37
2023-04-18T07:03:35.289Z,90.47
2023-04-18T07:04:35.271Z,90.26
2023-04-18T07:05:35.205Z,90.16
2023-04-18T07:06:36.181Z,90.47
2023-04-18T07:07:35.165Z,90.37
2023-04-18T07:08:35.150Z,90.67
2023-04-18T07:09:35.134Z,90.37
2023-04-18T07:10:35.128Z,90.67
2023-04-18T07:11:35.161Z,90.37
2023-04-18T07:12:35.109Z,90.16
2023-04-18T07:13:35.099Z,90.43
2023-04-18T07:14:35.097Z,90.43
2023-04-18T07:15:35.072Z,90.64
2023-04-18T07:16:35.108Z,90.43
2023-04-18T07:17:35.071Z,90.43
2023-04-18T07:18:38.302Z,90.26
2023-04-18T07:19:36.041Z,90.47
2023-04-18T07:20:35.045Z,90.57
2023-04-18T07:21:35.061Z,90.64
2023-04-18T07:22:35.020Z,90.84
2023-04-18T07:23:36.057Z,90.53
2023-04-18T07:24:34.976Z,90.57
2023-04-18T07:25:35.977Z,90.22
2023-04-18T07:26:34.978Z,90.73
2023-04-18T07:27:35.071Z,90.33
2023-04-18T07:28:34.955Z,90.43
2023-04-18T07:29:34.942Z,90.12
2023-04-18T07:30:34.948Z,90.18
2023-04-18T07:31:34.978Z,90.22
2023-04-18T07:32:35.000Z,90.64
2023-04-18T07:33:34.907Z,90.73
2023-04-18T07:34:34.888Z,90.12
2023-04-18T07:35:34.887Z,90.84
2023-04-18T07:36:34.882Z,90.43
2023-04-18T07:37:34.865Z,90.22
2023-04-18T07:38:34.842Z,90.73
2023-04-18T07:39:34.842Z,90.73
2023-04-18T07:40:34.836Z,90.22
2023-04-18T07:41:34.839Z,90.43
2023-04-18T07:42:34.825Z,90.33
2023-04-18T07:43:34.887Z,90.22
2023-04-18T07:44:34.823Z,90.73
2023-04-18T07:45:34.778Z,90.53
2023-04-18T07:46:34.805Z,90.12
2023-04-18T07:47:34.825Z,90.33
2023-04-18T07:48:34.751Z,90.12
2023-04-18T07:49:34.734Z,90.43
2023-04-18T07:50:34.743Z,90.18
2023-04-18T07:51:34.772Z,91.05
2023-04-18T07:52:34.749Z,90.69
2023-04-18T07:53:34.707Z,90.49
2023-04-18T07:54:34.715Z,90.39
2023-04-18T07:55:34.685Z,90.18
2023-04-18T07:56:34.742Z,89.87
2023-04-18T07:57:34.672Z,90.49
2023-04-18T07:58:34.679Z,90.49
2023-04-18T07:59:34.641Z,90.49
2023-04-18T08:00:34.635Z,90.34
2023-04-18T08:01:34.672Z,90.34
2023-04-18T08:02:34.737Z,89.87
2023-04-18T08:03:34.674Z,90.03
2023-04-18T08:04:34.724Z,90.14
2023-04-18T08:05:34.691Z,89.94
2023-04-18T08:06:34.647Z,89.83
2023-04-18T08:07:34.565Z,89.94
2023-04-18T08:08:34.550Z,90.24
2023-04-18T08:09:34.544Z,89.94
2023-04-18T08:10:34.533Z,89.73
2023-04-18T08:11:34.542Z,89.73
2023-04-18T08:12:34.536Z,89.83
2023-04-18T08:13:34.509Z,89.62
2023-04-18T08:14:34.496Z,89.17
2023-04-18T08:15:34.484Z,89.52
2023-04-18T08:16:34.518Z,89.07
2023-04-18T08:17:34.471Z,89.48
2023-04-18T08:18:34.451Z,89.31
2023-04-18T08:19:34.443Z,89.17
2023-04-18T08:20:34.428Z,88.96
2023-04-18T08:21:34.471Z,88.76
2023-04-18T08:22:34.415Z,89.11
2023-04-18T08:23:34.415Z,89.31
2023-04-18T08:24:34.389Z,89.07
2023-04-18T08:25:34.383Z,89.07
2023-04-18T08:26:34.386Z,89.07
2023-04-18T08:27:34.380Z,89.31
2023-04-18T08:28:34.348Z,89.07
2023-04-18T08:29:34.337Z,89.52
2023-04-18T08:30:35.318Z,89.38
2023-04-18T08:31:34.368Z,89.44
2023-04-18T08:32:34.332Z,89.54
2023-04-18T08:33:34.303Z,88.96
2023-04-18T08:34:34.291Z,88.76
2023-04-18T08:35:34.288Z,89.07
2023-04-18T08:36:34.311Z,88.72
2023-04-18T08:37:34.259Z,88.62
2023-04-18T08:38:34.254Z,88.92
2023-04-18T08:39:34.237Z,89.03
2023-04-18T08:40:34.220Z,88.47
2023-04-18T08:41:34.258Z,88.17
2023-04-18T08:42:34.220Z,87.75
2023-04-18T08:43:34.208Z,87.96
2023-04-18T08:44:34.187Z,87.65
2023-04-18T08:45:34.273Z,88.47
2023-04-18T08:46:34.192Z,87.92
2023-04-18T08:47:34.177Z,87.71
2023-04-18T08:48:34.148Z,87.30
2023-04-18T08:49:34.134Z,86.68
2023-04-18T08:50:34.120Z,86.33
2023-04-18T08:51:34.166Z,86.17
2023-04-18T08:52:34.142Z,85.82
2023-04-18T08:53:34.130Z,85.52
2023-04-18T08:54:34.085Z,85.52
2023-04-18T08:55:34.066Z,85.27
2023-04-18T08:56:34.084Z,85.38
2023-04-18T08:57:34.051Z,84.72
2023-04-18T08:58:34.044Z,84.10
2023-04-18T08:59:34.034Z,84.20
2023-04-18T09:00:34.022Z,84.00
2023-04-18T09:01:34.073Z,83.80
2023-04-18T09:02:35.163Z,83.25
2023-04-18T09:03:34.011Z,82.32
2023-04-18T09:04:34.097Z,82.18
2023-04-18T09:05:33.981Z,81.98
2023-04-18T09:06:33.975Z,81.57
2023-04-18T09:07:34.960Z,81.73
2023-04-18T09:08:33.935Z,80.51
2023-04-18T09:09:33.922Z,80.57
2023-04-18T09:10:33.936Z,80.46
2023-04-18T09:11:33.937Z,80.08
2023-04-18T09:12:33.905Z,79.98
2023-04-18T09:13:33.893Z,79.57
2023-04-18T09:14:33.886Z,78.75
2023-04-18T09:15:33.872Z,78.14
2023-04-18T09:16:33.939Z,77.08
2023-04-18T09:17:33.918Z,77.12
2023-04-18T09:18:33.837Z,76.57
2023-04-18T09:19:33.855Z,75.79
2023-04-18T09:20:33.813Z,76.06
2023-04-18T09:21:33.857Z,76.06
2023-04-18T09:22:33.797Z,76.16
2023-04-18T09:23:33.794Z,75.55
2023-04-18T09:24:33.775Z,74.84
2023-04-18T09:25:33.774Z,75.59
2023-04-18T09:26:33.790Z,74.63
2023-04-18T09:27:33.754Z,74.11
2023-04-18T09:28:33.801Z,74.63
2023-04-18T09:29:33.729Z,74.73
2023-04-18T09:30:33.742Z,74.73
2023-04-18T09:31:33.783Z,75.45
2023-04-18T09:32:33.748Z,74.39
2023-04-18T09:33:33.702Z,73.57
2023-04-18T09:34:33.677Z,73.27
2023-04-18T09:35:34.038Z,73.06
2023-04-18T09:36:34.693Z,73.27
2023-04-18T09:37:33.652Z,73.16
2023-04-18T09:38:33.641Z,73.33
2023-04-18T09:39:33.628Z,72.00
2023-04-18T09:40:33.625Z,72.92
2023-04-18T09:41:33.640Z,72.82
2023-04-18T09:42:33.602Z,72.31
2023-04-18T09:43:33.593Z,73.16
2023-04-18T09:44:33.580Z,72.31
2023-04-18T09:45:33.569Z,72.96
2023-04-18T09:46:33.598Z,72.04
2023-04-18T09:47:33.605Z,72.34
2023-04-18T09:48:33.538Z,73.16
2023-04-18T09:49:33.539Z,72.62
2023-04-18T09:50:33.519Z,72.24
2023-04-18T09:51:33.541Z,72.41
2023-04-18T09:52:33.501Z,72.92
2023-04-18T09:53:33.497Z,71.91
2023-04-18T09:54:33.493Z,71.50
2023-04-18T09:55:33.484Z,71.91
2023-04-18T09:56:33.463Z,71.80
2023-04-18T09:57:33.475Z,71.80
2023-04-18T09:58:33.442Z,71.70
2023-04-18T09:59:33.432Z,70.98
2023-04-18T10:00:33.428Z,70.57
2023-04-18T10:01:33.461Z,72.11
2023-04-18T10:03:05.392Z,71.59
2023-04-18T10:03:33.487Z,70.88
2023-04-18T10:04:33.474Z,70.23
2023-04-18T10:05:33.497Z,70.95
2023-04-18T10:06:33.403Z,70.72
2023-04-18T10:07:33.402Z,69.38
2023-04-18T10:08:33.361Z,69.38
2023-04-18T10:09:33.336Z,68.54
2023-04-18T10:10:33.328Z,68.64
2023-04-18T10:11:33.338Z,69.86
2023-04-18T10:12:33.309Z,68.64
2023-04-18T10:13:33.293Z,68.67
2023-04-18T10:14:33.283Z,68.95
2023-04-18T10:15:33.353Z,69.08
2023-04-18T10:16:34.971Z,68.84
2023-04-18T10:17:33.355Z,69.25
2023-04-18T10:18:33.278Z,69.15
2023-04-18T10:19:33.239Z,68.91
2023-04-18T10:20:33.212Z,68.20
2023-04-18T10:21:33.295Z,67.49
2023-04-18T10:22:33.227Z,67.49
2023-04-18T10:23:33.186Z,67.66
2023-04-18T10:24:33.192Z,67.55
2023-04-18T10:25:33.183Z,67.73
2023-04-18T10:26:33.194Z,67.35
2023-04-18T10:27:33.150Z,65.72
2023-04-18T10:28:33.139Z,66.54
2023-04-18T10:29:33.149Z,67.25
2023-04-18T10:30:33.117Z,66.23
2023-04-18T10:31:33.184Z,67.05
2023-04-18T10:32:33.150Z,65.92
2023-04-18T10:33:33.642Z,65.59
2023-04-18T10:34:33.090Z,65.52
2023-04-18T10:35:33.099Z,66.23
2023-04-18T10:36:33.109Z,66.44
2023-04-18T10:37:33.075Z,67.05
2023-04-18T10:38:33.055Z,67.22
2023-04-18T10:39:33.043Z,66.38
2023-04-18T10:40:33.058Z,67.05
2023-04-18T10:41:33.033Z,65.94
2023-04-18T10:42:33.073Z,64.51
2023-04-18T10:43:33.002Z,66.44
2023-04-18T10:44:33.019Z,65.97
2023-04-18T10:45:32.975Z,66.04
2023-04-18T10:46:33.121Z,64.00
2023-04-18T10:47:33.200Z,64.03
2023-04-18T10:48:33.031Z,65.22
2023-04-18T10:49:33.875Z,63.80
2023-04-18T10:50:32.927Z,63.46
2023-04-18T10:51:32.927Z,63.57
2023-04-18T10:52:32.931Z,63.97
2023-04-18T10:53:32.905Z,63.49
2023-04-18T10:54:32.896Z,63.19
2023-04-18T10:55:33.050Z,63.87
2023-04-18T10:56:32.917Z,63.46
2023-04-18T10:57:32.853Z,63.33
2023-04-18T10:58:32.839Z,63.16
2023-04-18T10:59:32.859Z,62.35
2023-04-18T11:00:32.888Z,63.26
2023-04-18T11:01:33.150Z,63.06
2023-04-18T11:02:32.968Z,63.36
2023-04-18T11:03:32.861Z,64.07
2023-04-18T11:04:32.820Z,63.49
2023-04-18T11:05:32.791Z,63.16
2023-04-18T11:06:32.775Z,63.97
2023-04-18T11:07:32.761Z,62.96
2023-04-18T11:08:32.742Z,63.77
2023-04-18T11:09:32.749Z,63.36
2023-04-18T11:10:32.731Z,63.46
2023-04-18T11:11:32.765Z,64.00
2023-04-18T11:12:32.711Z,63.49
2023-04-18T11:13:32.703Z,64.03
2023-04-18T11:14:32.691Z,64.95
2023-04-18T11:15:32.677Z,65.19
2023-04-18T11:16:32.755Z,65.36
2023-04-18T11:17:32.738Z,66.47
2023-04-18T11:18:32.643Z,64.47
2023-04-18T11:19:32.626Z,64.98
2023-04-18T11:20:32.618Z,65.19
2023-04-18T11:21:32.630Z,65.59
2023-04-18T11:22:32.684Z,64.47
2023-04-18T11:23:32.592Z,64.64
2023-04-18T11:24:32.584Z,66.24
2023-04-18T11:25:32.568Z,65.73
2023-04-18T11:26:32.585Z,63.59
2023-04-18T11:27:32.556Z,63.53
2023-04-18T11:28:32.552Z,63.93
2023-04-18T11:29:32.529Z,63.83
2023-04-18T11:30:32.526Z,63.42
2023-04-18T11:31:32.602Z,64.14
2023-04-18T11:32:32.629Z,64.72
2023-04-18T11:33:32.510Z,64.51
2023-04-18T11:34:32.485Z,64.11
2023-04-18T11:35:32.496Z,63.42
2023-04-18T11:36:32.474Z,64.34
2023-04-18T11:37:32.458Z,63.73
2023-04-18T11:38:32.448Z,64.31
2023-04-18T11:39:32.438Z,64.81
2023-04-18T11:40:32.440Z,64.48
2023-04-18T11:41:32.488Z,65.33
2023-04-18T11:42:32.402Z,63.67
2023-04-18T11:43:32.420Z,64.11
2023-04-18T11:44:33.756Z,63.70
2023-04-18T11:45:33.379Z,65.53
2023-04-18T11:46:32.488Z,65.73
2023-04-18T11:47:32.395Z,66.44
2023-04-18T11:48:32.344Z,64.72
2023-04-18T11:49:32.327Z,63.39
2023-04-18T11:50:32.317Z,63.90
2023-04-18T11:51:32.354Z,61.76
2023-04-18T11:52:32.304Z,61.97
2023-04-18T11:53:32.292Z,62.17
2023-04-18T11:54:32.398Z,62.17
2023-04-18T11:55:32.328Z,63.39
2023-04-18T11:56:34.630Z,62.27
2023-04-18T11:57:32.256Z,62.35
2023-04-18T11:58:32.248Z,61.83
2023-04-18T11:59:32.284Z,61.74
2023-04-18T12:00:32.214Z,61.81
2023-04-18T12:01:32.236Z,62.21
2023-04-18T12:02:32.284Z,63.20
2023-04-18T12:03:32.310Z,63.20
2023-04-18T12:04:32.270Z,61.95
2023-04-18T12:05:32.375Z,61.65
2023-04-18T12:06:32.300Z,61.65
2023-04-18T12:07:32.157Z,61.44
2023-04-18T12:08:32.154Z,61.27
2023-04-18T12:09:32.131Z,60.36
2023-04-18T12:10:32.123Z,60.46
2023-04-18T12:11:32.133Z,60.36
2023-04-18T12:12:32.126Z,60.86
2023-04-18T12:13:32.095Z,60.36
2023-04-18T12:14:32.080Z,61.40
2023-04-18T12:15:32.081Z,61.71
2023-04-18T12:16:32.121Z,61.88
2023-04-18T12:17:32.079Z,61.78
2023-04-18T12:18:32.044Z,61.68
2023-04-18T12:19:32.033Z,61.78
2023-04-18T12:20:32.025Z,61.47
2023-04-18T12:21:32.034Z,61.47
2023-04-18T12:22:32.002Z,61.68
2023-04-18T12:23:32.023Z,61.88
2023-04-18T12:24:31.988Z,61.57
2023-04-18T12:25:31.984Z,60.79
2023-04-18T12:26:31.983Z,61.81
2023-04-18T12:27:31.946Z,62.41
2023-04-18T12:28:32.007Z,61.98
2023-04-18T12:29:31.934Z,63.20
2023-04-18T12:30:31.948Z,61.78
2023-04-18T12:31:31.930Z,60.69
2023-04-18T12:32:31.912Z,61.91
2023-04-18T12:33:31.951Z,61.81
2023-04-18T12:34:31.876Z,62.11
2023-04-18T12:35:31.913Z,61.60
2023-04-18T12:36:31.883Z,61.60
2023-04-18T12:37:31.850Z,61.94
2023-04-18T12:38:31.847Z,62.35
2023-04-18T12:39:31.822Z,61.53
2023-04-18T12:40:31.826Z,61.36
2023-04-18T12:41:31.826Z,62.17
2023-04-18T12:42:31.821Z,63.29
2023-04-18T12:43:31.786Z,64.41
2023-04-18T12:44:31.776Z,65.56
2023-04-18T12:45:31.846Z,66.88
2023-04-18T12:46:31.795Z,66.78
2023-04-18T12:47:31.757Z,67.32
2023-04-18T12:48:31.745Z,67.43
2023-04-18T12:49:31.787Z,67.83
2023-04-18T12:50:31.753Z,68.24
2023-04-18T12:51:31.777Z,68.34
2023-04-18T12:52:31.702Z,68.17